Time;durP1;ratioP1;P1;durP2;ratioP2;P2;SDS_P1;SDS_P2;PMS_P1;PMS_P2;Temp;Humidity;BMP_temperature;BMP_pressure;BME280_temperature;BME280_humidity;BME280_pressure;Samples;Min_cycle;Max_cycle;Signal;HPM_P1;HPM_P2
2022/07/14 00:01:11;;;;;;;7.05;5.93;;;30.30;99.90;;;;;;5011987;23;20507;-42
2022/07/14 00:03:37;;;;;;;6.80;5.72;;;30.30;99.90;;;;;;4992426;28;20416;-42
2022/07/14 00:06:03;;;;;;;7.03;5.75;;;30.30;99.90;;;;;;4992489;28;20026;-42
2022/07/14 00:08:29;;;;;;;8.40;6.30;;;30.30;99.90;;;;;;4974841;28;20033;-42
2022/07/14 00:10:54;;;;;;;6.90;5.53;;;30.30;99.90;;;;;;4992538;28;20376;-42
2022/07/14 00:13:20;;;;;;;7.47;5.93;;;30.30;99.90;;;;;;4992226;28;20044;-42
2022/07/14 00:15:46;;;;;;;7.43;6.13;;;30.30;99.90;;;;;;4992164;28;20121;-41
2022/07/14 00:18:12;;;;;;;7.93;6.15;;;30.30;99.90;;;;;;4992387;28;20427;-42
2022/07/14 00:20:37;;;;;;;7.32;5.88;;;30.30;99.90;;;;;;4992160;28;20451;-42
2022/07/14 00:23:03;;;;;;;7.40;6.10;;;30.30;99.90;;;;;;4992241;28;20054;-41
2022/07/14 00:25:29;;;;;;;7.25;5.65;;;30.30;99.90;;;;;;4992243;28;20077;-41
2022/07/14 00:27:55;;;;;;;8.07;5.80;;;30.30;99.90;;;;;;4992164;28;20436;-41
2022/07/14 00:30:22;;;;;;;6.97;6.05;;;30.20;99.90;;;;;;4992304;28;20113;-42
2022/07/14 00:32:48;;;;;;;8.30;6.70;;;30.30;99.90;;;;;;4992183;28;20031;-42
2022/07/14 00:35:14;;;;;;;7.63;6.40;;;30.30;99.90;;;;;;4992033;28;20101;-41
2022/07/14 00:37:40;;;;;;;7.22;5.93;;;30.30;99.90;;;;;;4991818;28;20040;-42
2022/07/14 00:40:07;;;;;;;7.70;6.90;;;30.30;99.90;;;;;;4974412;28;20458;-41
2022/07/14 00:42:36;;;;;;;7.05;5.68;;;30.30;99.90;;;;;;4991822;28;20032;-41
2022/07/14 00:45:04;;;;;;;7.07;5.53;;;30.30;99.90;;;;;;4991237;28;20018;-41
2022/07/14 00:47:30;;;;;;;7.95;6.93;;;30.20;99.90;;;;;;4991810;28;20022;-41
2022/07/14 00:49:56;;;;;;;6.68;5.72;;;30.20;99.90;;;;;;4991894;28;20046;-41
2022/07/14 00:52:24;;;;;;;7.80;6.25;;;30.30;99.90;;;;;;4991592;28;20102;-41
2022/07/14 00:54:51;;;;;;;7.78;5.93;;;30.20;99.90;;;;;;4974542;28;20107;-41
2022/07/14 00:57:18;;;;;;;6.82;6.13;;;30.20;99.90;;;;;;4991783;28;20522;-42
2022/07/14 00:59:44;;;;;;;6.68;5.82;;;30.20;99.90;;;;;;5007671;23;20057;-46
2022/07/14 01:02:10;;;;;;;7.40;5.57;;;30.20;99.90;;;;;;4991723;28;20034;-45
2022/07/14 01:04:36;;;;;;;6.30;5.47;;;30.20;99.90;;;;;;4991385;28;20033;-46
2022/07/14 01:07:02;;;;;;;7.85;6.45;;;30.20;99.90;;;;;;4991413;28;20105;-45
2022/07/14 01:09:28;;;;;;;7.45;6.32;;;30.20;99.90;;;;;;4991678;28;20464;-46
2022/07/14 01:11:54;;;;;;;7.93;6.25;;;30.20;99.90;;;;;;4991427;28;20066;-46
2022/07/14 01:14:20;;;;;;;6.97;5.57;;;30.20;99.90;;;;;;4991487;28;20042;-46
2022/07/14 01:16:46;;;;;;;8.07;6.30;;;30.20;99.90;;;;;;4991347;28;20530;-46
2022/07/14 01:19:12;;;;;;;6.65;5.78;;;30.20;99.90;;;;;;4991493;28;20034;-45
2022/07/14 01:21:38;;;;;;;7.70;6.20;;;30.20;99.90;;;;;;4991437;28;20045;-46
2022/07/14 01:24:04;;;;;;;7.53;5.90;;;30.20;99.90;;;;;;4991455;28;20403;-46
2022/07/14 01:26:29;;;;;;;6.55;5.45;;;30.20;99.90;;;;;;4991558;28;20026;-45
2022/07/14 01:28:55;;;;;;;8.45;6.57;;;30.10;99.90;;;;;;4991438;28;20034;-46
2022/07/14 01:31:21;;;;;;;6.60;5.90;;;30.10;99.90;;;;;;4991352;28;20018;-46
2022/07/14 01:33:47;;;;;;;8.38;6.32;;;30.10;99.90;;;;;;4991248;28;20510;-46
2022/07/14 01:36:12;;;;;;;7.55;6.20;;;30.10;99.90;;;;;;4991257;28;20031;-46
2022/07/14 01:38:38;;;;;;;6.88;6.10;;;30.10;99.90;;;;;;4991246;28;20054;-45
2022/07/14 01:41:04;;;;;;;6.85;5.97;;;30.10;99.90;;;;;;4991280;28;20506;-46
2022/07/14 01:43:30;;;;;;;6.68;5.82;;;30.10;99.90;;;;;;4991532;28;20034;-45
2022/07/14 01:45:55;;;;;;;7.45;6.45;;;30.10;99.90;;;;;;4991133;28;20064;-45
2022/07/14 01:48:21;;;;;;;6.63;5.85;;;30.10;99.90;;;;;;4991248;28;20038;-46
2022/07/14 01:50:47;;;;;;;6.68;5.90;;;30.10;99.90;;;;;;4991115;28;20453;-45
2022/07/14 01:53:14;;;;;;;7.60;5.80;;;30.10;99.90;;;;;;4991125;28;20039;-45
2022/07/14 01:55:39;;;;;;;6.43;5.50;;;30.10;99.90;;;;;;4991652;28;20030;-46
2022/07/14 01:58:05;;;;;;;7.70;5.85;;;30.10;99.90;;;;;;4977472;28;20052;-45
2022/07/14 02:00:31;;;;;;;8.25;5.95;;;30.10;99.90;;;;;;4995488;28;20050;-45
2022/07/14 02:02:57;;;;;;;6.53;5.55;;;30.10;99.90;;;;;;4995014;28;20452;-46
2022/07/14 02:05:23;;;;;;;7.40;6.35;;;30.10;99.90;;;;;;4994798;28;20092;-49
2022/07/14 02:07:49;;;;;;;5.88;5.28;;;30.10;99.90;;;;;;4994961;28;20030;-46
2022/07/14 02:12:59;;;;;;;8.23;5.65;;;30.10;99.90;;;;;;4994846;28;20030;-46
2022/07/14 02:15:24;;;;;;;7.00;5.45;;;30.10;99.90;;;;;;4994405;28;20411;-46
2022/07/14 02:17:50;;;;;;;6.85;5.85;;;30.00;99.90;;;;;;4977038;28;20502;-46
2022/07/14 02:20:16;;;;;;;6.88;5.80;;;30.00;99.90;;;;;;4994633;28;20053;-46
2022/07/14 02:22:42;;;;;;;6.40;5.50;;;30.10;99.90;;;;;;4960927;28;20034;-46
2022/07/14 02:25:08;;;;;;;6.88;5.70;;;30.00;99.90;;;;;;4994426;28;20026;-46
2022/07/14 02:27:34;;;;;;;6.40;5.35;;;30.00;99.90;;;;;;4994482;28;20034;-46
2022/07/14 02:30:00;;;;;;;6.88;5.53;;;30.00;99.90;;;;;;4994398;28;20026;-47
2022/07/14 02:32:29;;;;;;;7.13;5.80;;;30.00;99.90;;;;;;4994047;28;20037;-46
2022/07/14 02:34:54;;;;;;;6.65;5.35;;;30.00;99.90;;;;;;4994213;28;20042;-46
2022/07/14 02:37:20;;;;;;;6.53;5.75;;;30.00;99.90;;;;;;4994225;28;20030;-46
2022/07/14 02:39:48;;;;;;;6.78;5.50;;;30.00;99.90;;;;;;4994100;28;20439;-46
2022/07/14 02:42:13;;;;;;;;;;;30.00;99.90;;;;;;4994590;28;20061;-46
2022/07/14 02:44:39;;;;;;;6.15;5.40;;;30.00;99.90;;;;;;4993983;28;20398;-45
2022/07/14 02:47:05;;;;;;;6.90;5.68;;;30.00;99.90;;;;;;4994172;28;20029;-46
2022/07/14 02:49:31;;;;;;;6.22;5.15;;;30.00;99.90;;;;;;4993938;28;20026;-46
2022/07/14 02:51:56;;;;;;;6.07;5.05;;;30.00;99.90;;;;;;4993993;28;20109;-46
2022/07/14 02:54:23;;;;;;;7.00;5.68;;;30.00;99.90;;;;;;4993730;28;20069;-46
2022/07/14 02:56:49;;;;;;;9.05;5.57;;;30.00;99.90;;;;;;4993894;28;20018;-45
2022/07/14 02:59:15;;;;;;;6.00;5.40;;;30.00;99.90;;;;;;4994086;28;20109;-43
2022/07/14 03:01:41;;;;;;;6.32;4.85;;;30.00;99.90;;;;;;4993747;28;20116;-45
2022/07/14 03:04:07;;;;;;;6.68;4.82;;;30.00;99.90;;;;;;4993620;28;20078;-46
2022/07/14 03:06:33;;;;;;;5.78;4.80;;;30.00;99.90;;;;;;4993813;28;20032;-45
2022/07/14 03:08:59;;;;;;;6.35;5.32;;;30.00;99.90;;;;;;4993156;28;20022;-46
2022/07/14 03:11:24;;;;;;;5.68;4.75;;;30.00;99.90;;;;;;4993770;28;20030;-45
2022/07/14 03:13:50;;;;;;;5.60;4.43;;;30.00;99.90;;;;;;4975813;28;20053;-45
2022/07/14 03:16:16;;;;;;;5.93;4.68;;;30.00;99.90;;;;;;4993440;28;20045;-45
2022/07/14 03:18:42;;;;;;;6.32;4.78;;;30.00;99.90;;;;;;4993494;28;20449;-45
2022/07/14 03:21:09;;;;;;;6.32;5.03;;;30.00;99.90;;;;;;4993424;28;20033;-46
2022/07/14 03:23:35;;;;;;;5.63;4.50;;;30.00;99.90;;;;;;4993627;28;20161;-46
2022/07/14 03:26:02;;;;;;;7.15;4.95;;;30.00;99.90;;;;;;4993139;28;20113;-47
2022/07/14 03:28:28;;;;;;;5.95;5.35;;;30.00;99.90;;;;;;4993124;28;20030;-46
2022/07/14 03:30:58;;;;;;;6.78;5.15;;;29.90;99.90;;;;;;4993182;28;20026;-46
2022/07/14 03:33:24;;;;;;;6.68;5.38;;;30.00;99.90;;;;;;4975526;28;20125;-47
2022/07/14 03:35:52;;;;;;;6.28;4.90;;;29.90;99.90;;;;;;4993015;28;20093;-46
2022/07/14 03:38:18;;;;;;;5.97;5.15;;;29.90;99.90;;;;;;4992913;28;20031;-45
2022/07/14 03:40:44;;;;;;;4.97;4.30;;;29.90;99.90;;;;;;4992859;28;20085;-45
2022/07/14 03:43:11;;;;;;;6.85;4.65;;;29.90;99.90;;;;;;4993049;28;20732;-45
2022/07/14 03:45:38;;;;;;;6.37;5.07;;;30.00;99.90;;;;;;4993212;28;20061;-45
2022/07/14 03:48:07;;;;;;;5.18;4.22;;;29.90;99.90;;;;;;4992906;28;20376;-44
2022/07/14 03:50:34;;;;;;;5.68;4.72;;;29.90;99.90;;;;;;4992821;28;20037;-44
2022/07/14 03:52:59;;;;;;;6.30;4.75;;;29.90;99.90;;;;;;4992778;28;20402;-45
2022/07/14 03:55:25;;;;;;;4.38;3.97;;;29.90;99.90;;;;;;4992731;28;20395;-45
2022/07/14 03:57:51;;;;;;;5.43;4.60;;;29.90;99.90;;;;;;4992789;28;20065;-45
2022/07/14 04:00:16;;;;;;;4.13;3.67;;;29.90;99.90;;;;;;4993026;28;20050;-46
2022/07/14 04:02:42;;;;;;;5.40;4.22;;;29.90;99.90;;;;;;4975516;28;20058;-46
2022/07/14 04:05:08;;;;;;;5.63;4.35;;;29.90;99.90;;;;;;4975346;28;20034;-46
2022/07/14 04:07:34;;;;;;;4.50;3.60;;;29.90;99.90;;;;;;4992639;28;20053;-45
2022/07/14 04:10:00;;;;;;;4.55;4.10;;;29.90;99.90;;;;;;4992419;28;20058;-46
2022/07/14 04:12:25;;;;;;;4.55;3.95;;;29.90;99.90;;;;;;4974841;28;20464;-46
2022/07/14 04:14:51;;;;;;;6.13;4.05;;;29.90;99.90;;;;;;4992391;28;20031;-46
2022/07/14 04:17:17;;;;;;;5.43;4.53;;;29.90;99.90;;;;;;4992347;28;20483;-46
2022/07/14 04:19:43;;;;;;;5.05;4.03;;;29.90;99.90;;;;;;4991557;28;20392;-45
2022/07/14 04:22:08;;;;;;;4.78;3.72;;;29.90;99.90;;;;;;4992407;28;20022;-45
2022/07/14 04:24:34;;;;;;;5.93;4.55;;;29.90;99.90;;;;;;4992006;28;20030;-45
2022/07/14 04:27:00;;;;;;;4.72;4.13;;;29.90;99.90;;;;;;4991967;28;20022;-47
2022/07/14 04:29:25;;;;;;;5.00;4.22;;;29.90;99.90;;;;;;4992165;28;20030;-45
2022/07/14 04:31:51;;;;;;;4.38;3.90;;;29.80;99.90;;;;;;4991970;28;20495;-45
2022/07/14 04:34:18;;;;;;;5.15;4.20;;;29.80;99.90;;;;;;4991801;28;20125;-46
2022/07/14 04:36:44;;;;;;;5.20;4.30;;;29.90;99.90;;;;;;4991873;28;20023;-46
2022/07/14 04:39:10;;;;;;;7.32;4.40;;;29.90;99.90;;;;;;4991935;28;20034;-46
2022/07/14 04:41:36;;;;;;;4.40;3.83;;;29.80;99.90;;;;;;4991701;28;20492;-46
2022/07/14 04:44:02;;;;;;;5.28;4.13;;;29.80;99.90;;;;;;4974448;28;20384;-46
2022/07/14 04:46:28;;;;;;;5.07;4.57;;;29.80;99.90;;;;;;4991734;28;20084;-46
2022/07/14 04:54:22;;;;;;;5.40;4.35;;;29.80;99.90;;;;;;4991878;28;20045;-46
2022/07/14 04:56:48;;;;;;;4.75;4.25;;;29.80;99.90;;;;;;4991564;28;20022;-46
2022/07/14 04:59:14;;;;;;;5.40;4.43;;;29.80;99.90;;;;;;4991504;28;20228;-46
2022/07/14 05:01:39;;;;;;;4.93;4.03;;;29.80;99.90;;;;;;4991867;28;20097;-46
2022/07/14 05:04:05;;;;;;;6.43;4.55;;;29.80;99.90;;;;;;4991575;28;20476;-47
2022/07/14 05:06:31;;;;;;;5.13;3.95;;;29.80;99.90;;;;;;4991563;28;20053;-46
2022/07/14 05:08:57;;;;;;;4.70;3.88;;;29.80;99.90;;;;;;4991484;28;20464;-47
2022/07/14 05:11:22;;;;;;;4.57;3.95;;;29.80;99.90;;;;;;4991599;28;20388;-46
2022/07/14 05:13:51;;;;;;;5.43;4.50;;;29.80;99.90;;;;;;4991317;28;20036;-46
2022/07/14 05:16:17;;;;;;;6.70;4.45;;;29.80;99.90;;;;;;4991479;28;20026;-46
2022/07/14 05:18:42;;;;;;;5.57;4.10;;;29.80;99.90;;;;;;4991523;28;20101;-45
2022/07/14 05:21:09;;;;;;;6.35;4.38;;;29.80;99.90;;;;;;4991433;28;20476;-46
2022/07/14 05:23:34;;;;;;;4.18;3.75;;;29.80;99.90;;;;;;4991282;28;20045;-46
2022/07/14 05:26:00;;;;;;;5.43;4.32;;;29.80;99.90;;;;;;4991272;28;20023;-46
2022/07/14 05:28:26;;;;;;;5.05;3.85;;;29.80;99.90;;;;;;4991346;28;20030;-46
2022/07/14 05:30:58;;;;;;;5.18;4.40;;;29.80;99.90;;;;;;4992182;28;20022;-48
2022/07/14 05:33:24;;;;;;;6.03;3.90;;;29.80;99.90;;;;;;4995122;28;20026;-46
2022/07/14 05:35:50;;;;;;;5.97;4.13;;;29.80;99.90;;;;;;4995148;28;20044;-45
2022/07/14 05:38:16;;;;;;;7.68;4.43;;;29.80;99.90;;;;;;4995298;28;20027;-46
2022/07/14 05:40:41;;;;;;;6.03;3.67;;;29.80;99.90;;;;;;4995326;28;20161;-46
2022/07/14 05:43:07;;;;;;;4.80;3.90;;;29.80;99.90;;;;;;4995235;28;20022;-46
2022/07/14 05:45:33;;;;;;;4.97;3.83;;;29.80;99.90;;;;;;4995297;28;20098;-46
2022/07/14 05:47:59;;;;;;;5.75;4.00;;;29.80;99.90;;;;;;4995065;28;20437;-46
2022/07/14 05:50:25;;;;;;;4.68;3.65;;;29.80;99.90;;;;;;4994765;28;20106;-46
2022/07/14 05:52:51;;;;;;;6.10;3.90;;;29.80;99.90;;;;;;4995132;28;20030;-46
2022/07/14 05:55:16;;;;;;;5.57;4.50;;;29.80;99.90;;;;;;4994914;28;20105;-46
2022/07/14 05:57:42;;;;;;;5.80;4.18;;;29.80;99.90;;;;;;4995143;28;20027;-47
2022/07/14 06:00:09;;;;;;;6.65;5.30;;;29.80;99.90;;;;;;4994687;28;20090;-46
2022/07/14 06:02:34;;;;;;;4.63;4.03;;;29.80;99.90;;;;;;4977236;28;20129;-46
2022/07/14 06:05:00;;;;;;;6.20;4.43;;;29.80;99.90;;;;;;4994787;28;20564;-47
2022/07/14 06:07:26;;;;;;;6.70;5.07;;;29.80;99.90;;;;;;4994840;28;20032;-46
2022/07/14 06:09:52;;;;;;;6.15;5.03;;;29.80;99.90;;;;;;4994718;28;20026;-47
2022/07/14 06:12:18;;;;;;;5.82;4.38;;;29.80;99.90;;;;;;4994802;28;20048;-46
2022/07/14 06:14:44;;;;;;;7.70;4.32;;;29.80;99.90;;;;;;4994645;28;20026;-46
2022/07/14 06:17:10;;;;;;;6.15;4.20;;;29.80;99.90;;;;;;4994563;28;20022;-47
2022/07/14 06:19:36;;;;;;;5.50;4.60;;;29.80;99.90;;;;;;4994483;28;20026;-46
2022/07/14 06:22:06;;;;;;;6.63;5.45;;;29.80;99.90;;;;;;4994543;28;20053;-47
2022/07/14 06:24:33;;;;;;;6.43;5.28;;;29.80;99.90;;;;;;4994651;28;20030;-50
2022/07/14 06:26:59;;;;;;;7.97;4.97;;;29.80;99.90;;;;;;4994446;28;20023;-47
2022/07/14 06:29:25;;;;;;;6.28;5.20;;;29.80;99.90;;;;;;4976886;28;20529;-45
2022/07/14 06:31:55;;;;;;;6.00;4.75;;;29.80;99.90;;;;;;4994398;28;20357;-46
2022/07/14 06:34:21;;;;;;;4.70;4.20;;;29.80;99.90;;;;;;4994043;28;20121;-46
2022/07/14 06:36:47;;;;;;;5.00;4.32;;;29.80;99.90;;;;;;4994464;28;20023;-46
2022/07/14 06:39:14;;;;;;;5.22;4.18;;;29.80;99.90;;;;;;4976613;28;20027;-46
2022/07/14 06:41:40;;;;;;;5.25;4.00;;;29.80;99.90;;;;;;4994183;28;20015;-46
2022/07/14 06:44:06;;;;;;;6.10;4.10;;;29.80;99.90;;;;;;4993259;28;20089;-46
2022/07/14 06:46:32;;;;;;;6.40;4.15;;;29.80;99.90;;;;;;4993967;28;20476;-46
2022/07/14 06:48:59;;;;;;;5.53;4.15;;;29.80;99.90;;;;;;4993988;28;20080;-46
2022/07/14 06:51:26;;;;;;;6.18;4.90;;;29.80;99.90;;;;;;4994099;28;20027;-46
2022/07/14 06:53:52;;;;;;;;;;;29.80;99.90;;;;;;4993978;28;20124;-46
2022/07/14 06:56:18;;;;;;;5.55;4.22;;;29.90;99.90;;;;;;4994032;28;19993;-46
2022/07/14 06:58:44;;;;;;;5.70;4.53;;;29.90;99.90;;;;;;4993766;28;20064;-47
2022/07/14 07:01:10;;;;;;;5.68;3.97;;;29.80;99.90;;;;;;4993658;28;20453;-46
2022/07/14 07:03:35;;;;;;;5.07;4.05;;;29.80;99.90;;;;;;4976423;28;20526;-46
2022/07/14 07:08:45;;;;;;;5.70;3.95;;;29.90;99.90;;;;;;4993881;28;20436;-46
2022/07/14 07:11:11;;;;;;;4.50;3.78;;;29.90;99.90;;;;;;4993461;28;20101;-46
2022/07/14 07:13:37;;;;;;;6.45;4.10;;;29.90;99.90;;;;;;4993496;28;20034;-46
2022/07/14 07:16:08;;;;;;;4.80;3.80;;;29.90;99.90;;;;;;4993502;28;20033;-46
2022/07/14 07:18:35;;;;;;;4.20;3.40;;;29.90;99.90;;;;;;4993534;28;20034;-47
2022/07/14 07:21:01;;;;;;;5.03;3.83;;;29.90;99.90;;;;;;4993431;28;20523;-47
2022/07/14 07:23:27;;;;;;;4.72;4.07;;;29.90;99.90;;;;;;4993440;28;20034;-47
2022/07/14 07:25:53;;;;;;;4.30;3.63;;;29.90;99.90;;;;;;4993449;28;20026;-46
2022/07/14 07:28:19;;;;;;;7.10;3.88;;;29.90;99.90;;;;;;4993491;28;20117;-47
2022/07/14 07:30:45;;;;;;;5.22;3.60;;;29.90;99.90;;;;;;4993170;28;20036;-47
2022/07/14 07:33:11;;;;;;;5.30;3.50;;;29.90;99.90;;;;;;4976014;28;20510;-47
2022/07/14 07:35:38;;;;;;;4.90;3.92;;;29.90;99.90;;;;;;4993261;28;20053;-47
2022/07/14 07:38:04;;;;;;;4.63;3.42;;;29.90;99.90;;;;;;4993377;28;20106;-46
2022/07/14 07:40:30;;;;;;;4.85;3.88;;;29.90;99.90;;;;;;4993151;28;20105;-46
2022/07/14 07:42:56;;;;;;;5.50;3.15;;;29.90;99.90;;;;;;4975822;28;20101;-47
2022/07/14 07:45:22;;;;;;;3.90;3.10;;;30.00;99.90;;;;;;4993217;28;20109;-46
2022/07/14 07:47:48;;;;;;;4.10;3.63;;;29.90;99.90;;;;;;4975947;28;20105;-46
2022/07/14 07:50:14;;;;;;;4.65;3.70;;;29.90;99.90;;;;;;4992870;28;20072;-46
2022/07/14 07:52:40;;;;;;;5.28;3.80;;;30.00;99.90;;;;;;4975387;28;20369;-47
2022/07/14 07:55:09;;;;;;;7.10;5.32;;;30.00;99.90;;;;;;4992727;28;20042;-47
2022/07/14 07:57:36;;;;;;;4.13;3.72;;;30.00;99.90;;;;;;4992831;28;20022;-47
2022/07/14 08:00:05;;;;;;;5.28;3.85;;;30.00;99.90;;;;;;4992390;28;20053;-46
2022/07/14 08:02:30;;;;;;;3.45;2.85;;;30.00;99.90;;;;;;4992537;28;20488;-47
2022/07/14 08:04:56;;;;;;;5.70;3.58;;;30.00;99.90;;;;;;4992531;28;20089;-47
2022/07/14 08:07:22;;;;;;;5.25;3.78;;;30.00;99.90;;;;;;4975089;28;20499;-47
2022/07/14 08:09:48;;;;;;;7.32;3.70;;;30.00;99.90;;;;;;4992499;28;20476;-47
2022/07/14 08:12:14;;;;;;;3.92;3.25;;;30.00;99.90;;;;;;4992742;28;20070;-47
2022/07/14 08:14:49;;;;;;;4.07;3.22;;;30.00;99.90;;;;;;4992297;28;20039;-47
2022/07/14 08:17:20;;;;;;;3.80;3.20;;;30.00;99.90;;;;;;4974770;28;20379;-46
2022/07/14 08:19:47;;;;;;;4.13;3.40;;;30.00;99.90;;;;;;4974937;28;20027;-46
2022/07/14 08:22:13;;;;;;;7.57;4.20;;;30.00;99.90;;;;;;4992288;28;20027;-47
2022/07/14 08:24:39;;;;;;;6.13;3.40;;;30.00;99.90;;;;;;4992374;28;20041;-47
2022/07/14 08:27:05;;;;;;;3.73;2.90;;;30.00;99.90;;;;;;4992104;28;20499;-46
2022/07/14 08:29:31;;;;;;;5.45;3.45;;;30.00;99.90;;;;;;4992173;28;20113;-48
2022/07/14 08:31:57;;;;;;;5.30;3.80;;;30.00;99.90;;;;;;4991949;28;20101;-47
2022/07/14 08:34:23;;;;;;;4.95;2.97;;;30.00;99.90;;;;;;4992246;28;20034;-47
2022/07/14 08:36:49;;;;;;;4.18;3.08;;;30.00;99.90;;;;;;4992062;28;20112;-47
2022/07/14 08:39:15;;;;;;;4.38;3.60;;;30.10;99.90;;;;;;4991852;28;20026;-46
2022/07/14 08:41:42;;;;;;;5.70;3.67;;;30.10;99.90;;;;;;4991903;28;20102;-46
2022/07/14 08:44:09;;;;;;;4.93;3.40;;;30.00;99.90;;;;;;4991757;28;20088;-47
2022/07/14 08:46:38;;;;;;;5.85;3.63;;;30.10;99.90;;;;;;4991876;28;20022;-47
2022/07/14 08:49:07;;;;;;;4.10;2.95;;;30.10;99.90;;;;;;4991926;28;20450;-47
2022/07/14 08:51:36;;;;;;;4.50;3.10;;;30.10;99.90;;;;;;4991838;28;20388;-47
2022/07/14 08:54:03;;;;;;;3.55;3.00;;;30.10;99.90;;;;;;4991758;28;20109;-46
2022/07/14 08:56:32;;;;;;;4.75;3.25;;;30.10;99.90;;;;;;4991747;28;20018;-46
2022/07/14 08:58:58;;;;;;;4.80;3.13;;;30.10;99.90;;;;;;4991712;28;20058;-47
2022/07/14 09:01:26;;;;;;;3.83;3.42;;;30.10;99.90;;;;;;4991719;28;20460;-48
2022/07/14 09:03:55;;;;;;;3.60;3.13;;;30.10;99.90;;;;;;4991656;28;20373;-47
2022/07/14 09:06:51;;;;;;;4.50;3.00;;;30.10;99.90;;;;;;4991353;28;20085;-47
2022/07/14 09:09:27;;;;;;;5.28;3.25;;;30.10;99.90;;;;;;4991546;28;20058;-47
2022/07/14 09:12:07;;;;;;;4.38;3.38;;;30.10;99.90;;;;;;4991763;28;20373;-48
2022/07/14 09:17:25;;;;;;;4.45;3.13;;;30.10;99.90;;;;;;4991753;28;20092;-47
2022/07/14 09:20:11;;;;;;;6.20;3.42;;;30.10;99.90;;;;;;4991453;28;20041;-45
2022/07/14 09:22:39;;;;;;;4.57;2.80;;;30.10;99.90;;;;;;4991532;28;20483;-46
2022/07/14 09:25:10;;;;;;;4.50;3.40;;;30.10;99.90;;;;;;4991582;28;20084;-45
2022/07/14 09:27:37;;;;;;;4.32;3.30;;;30.10;99.90;;;;;;4991750;28;20026;-46
2022/07/14 09:30:05;;;;;;;7.35;4.40;;;30.10;99.90;;;;;;4991358;28;20033;-46
2022/07/14 09:32:47;;;;;;;6.88;4.70;;;30.20;99.90;;;;;;4991374;28;20033;-46
2022/07/14 09:35:15;;;;;;;10.88;8.07;;;30.10;99.90;;;;;;4991041;28;20031;-48
2022/07/14 09:37:42;;;;;;;7.43;6.30;;;30.20;99.90;;;;;;4991332;28;20085;-46
2022/07/14 09:40:28;;;;;;;9.80;7.15;;;30.20;99.90;;;;;;4991107;28;20042;-46
2022/07/14 09:43:05;;;;;;;7.53;6.65;;;30.20;99.90;;;;;;4991756;28;20053;-46
2022/07/14 09:45:31;;;;;;;;;;;30.10;99.90;;;;;;4991684;28;20027;-46
2022/07/14 09:48:09;;;;;;;9.07;6.85;;;30.20;99.90;;;;;;4991407;28;20348;-47
2022/07/14 09:50:43;;;;;;;11.32;9.30;;;30.20;99.90;;;;;;4991162;28;20383;-46
2022/07/14 09:53:15;;;;;;;9.35;6.97;;;30.20;99.90;;;;;;4991222;28;20029;-46
2022/07/14 09:55:48;;;;;;;9.45;7.00;;;30.20;99.90;;;;;;4991134;28;20369;-46
2022/07/14 09:58:14;;;;;;;7.38;5.82;;;30.20;99.90;;;;;;4991245;28;20014;-46
2022/07/14 10:00:42;;;;;;;8.38;6.35;;;30.20;99.90;;;;;;4991043;28;20073;-47
2022/07/14 10:03:09;;;;;;;7.80;5.82;;;30.20;99.90;;;;;;4991129;28;20138;-47
2022/07/14 10:05:35;;;;;;;5.97;5.30;;;30.20;99.90;;;;;;4991076;28;20037;-46
2022/07/14 10:08:04;;;;;;;7.13;5.50;;;30.20;99.90;;;;;;4991166;28;20109;-46
2022/07/14 10:10:35;;;;;;;7.93;5.93;;;30.30;99.90;;;;;;4991227;28;20019;-47
2022/07/14 10:13:04;;;;;;;8.27;5.70;;;30.20;99.90;;;;;;4991046;28;20388;-46
2022/07/14 10:15:30;;;;;;;7.82;5.40;;;30.30;99.90;;;;;;4990921;28;20408;-46
2022/07/14 10:17:59;;;;;;;6.55;4.93;;;30.20;99.90;;;;;;4992048;28;20031;-45
2022/07/14 10:20:26;;;;;;;5.28;4.55;;;30.30;99.90;;;;;;4994687;28;20022;-46
2022/07/14 10:22:54;;;;;;;5.80;4.80;;;30.30;99.90;;;;;;4994455;28;20023;-47
2022/07/14 10:25:20;;;;;;;6.05;4.70;;;30.30;99.90;;;;;;4994311;28;20041;-47
2022/07/14 10:27:48;;;;;;;7.45;4.95;;;30.30;99.90;;;;;;4994390;28;20030;-47
2022/07/14 10:30:15;;;;;;;7.25;4.68;;;30.30;99.90;;;;;;4994351;28;20054;-46
2022/07/14 10:32:44;;;;;;;5.00;4.32;;;30.30;99.90;;;;;;4994282;28;20042;-47
2022/07/14 10:35:12;;;;;;;7.80;4.47;;;30.30;99.90;;;;;;4994122;28;20101;-46
2022/07/14 10:37:38;;;;;;;4.80;4.20;;;30.30;99.90;;;;;;4994231;28;20019;-46
2022/07/14 10:40:36;;;;;;;4.75;4.10;;;30.30;99.90;;;;;;4994160;28;20044;-47
2022/07/14 10:43:09;;;;;;;6.28;4.50;;;30.30;99.90;;;;;;4962676;28;20042;-47
2022/07/14 10:45:45;;;;;;;4.40;4.00;;;30.30;99.90;;;;;;4994172;28;20352;-47
2022/07/14 10:48:27;;;;;;;7.78;4.45;;;30.40;99.90;;;;;;4994110;28;20057;-48
2022/07/14 10:51:26;;;;;;;4.88;4.15;;;30.30;99.90;;;;;;4994108;28;20061;-47
2022/07/14 10:54:06;;;;;;;5.15;4.18;;;30.40;99.90;;;;;;4993868;28;20018;-47
2022/07/14 10:56:32;;;;;;;4.55;4.10;;;30.40;99.90;;;;;;4993766;28;20033;-46
2022/07/14 10:59:26;;;;;;;5.78;3.90;;;30.40;99.90;;;;;;4994206;28;20023;-48
2022/07/14 11:02:13;;;;;;;6.03;4.35;;;30.40;99.90;;;;;;4993488;28;20054;-47
2022/07/14 11:08:09;;;;;;;6.15;4.25;;;30.40;99.90;;;;;;4972380;28;20042;-47
2022/07/14 11:10:34;;;;;;;9.38;4.72;;;30.40;99.90;;;;;;4993589;28;20039;-47
2022/07/14 11:13:03;;;;;;;5.97;4.60;;;30.50;99.90;;;;;;4993839;28;20384;-46
2022/07/14 11:15:40;;;;;;;4.25;3.85;;;30.50;99.90;;;;;;4993637;28;20121;-47
2022/07/14 11:18:18;;;;;;;6.65;4.55;;;30.40;99.90;;;;;;4993507;28;20026;-46
2022/07/14 11:21:00;;;;;;;5.85;4.47;;;30.50;99.90;;;;;;4993348;28;20432;-46
2022/07/14 11:23:28;;;;;;;5.07;4.40;;;30.50;99.90;;;;;;4993418;28;20034;-46
2022/07/14 11:25:55;;;;;;;6.55;4.45;;;30.50;99.90;;;;;;4993346;28;20165;-46
2022/07/14 11:28:43;;;;;;;4.57;4.00;;;30.50;99.90;;;;;;4992817;28;20101;-47
2022/07/14 11:31:10;;;;;;;5.32;3.90;;;30.50;99.90;;;;;;4975866;28;20121;-46
2022/07/14 11:36:17;;;;;;;6.05;4.25;;;30.50;99.90;;;;;;4993064;28;20023;-46
2022/07/14 11:36:23;;;;;;;6.03;4.07;;;30.50;99.90;;;;;;4992980;28;20440;-46
2022/07/14 11:38:49;;;;;;;4.80;3.83;;;30.60;99.90;;;;;;4992980;28;20023;-46
2022/07/14 11:41:15;;;;;;;3.95;3.53;;;30.60;99.90;;;;;;4992826;28;20042;-46
2022/07/14 11:43:50;;;;;;;5.30;4.30;;;30.60;99.90;;;;;;4992947;28;20033;-47
2022/07/14 11:46:21;;;;;;;6.88;4.82;;;30.50;99.90;;;;;;4992931;28;20383;-47
2022/07/14 11:48:50;;;;;;;5.85;4.63;;;30.60;99.90;;;;;;4992929;28;20033;-47
2022/07/14 11:51:29;;;;;;;5.40;4.28;;;30.60;99.90;;;;;;4992710;28;20084;-46
2022/07/14 11:54:01;;;;;;;5.53;4.78;;;30.60;99.90;;;;;;4992614;28;20535;-47
2022/07/14 11:56:29;;;;;;;5.70;4.47;;;30.60;99.90;;;;;;4992655;28;20169;-47
2022/07/14 11:59:03;;;;;;;5.20;3.97;;;30.60;99.90;;;;;;4992843;28;20066;-47
2022/07/14 12:01:35;;;;;;;5.43;4.43;;;30.60;99.90;;;;;;4992770;28;20495;-47
2022/07/14 12:04:12;;;;;;;4.85;3.63;;;30.60;99.90;;;;;;4975281;28;20023;-47
2022/07/14 12:06:40;;;;;;;4.97;4.47;;;30.70;99.90;;;;;;4992492;28;20107;-46
2022/07/14 12:09:06;;;;;;;4.85;3.95;;;30.60;99.90;;;;;;4992613;28;20101;-46
2022/07/14 12:11:32;;;;;;;5.10;3.58;;;30.70;99.90;;;;;;4992698;28;20034;-45
2022/07/14 12:13:59;;;;;;;5.30;4.05;;;30.70;99.90;;;;;;4992365;28;20431;-46
2022/07/14 12:16:25;;;;;;;5.47;4.03;;;30.70;99.90;;;;;;4992391;28;20121;-46
2022/07/14 12:18:52;;;;;;;4.32;3.92;;;30.70;99.90;;;;;;4975033;28;20109;-46
2022/07/14 12:21:32;;;;;;;5.13;3.55;;;30.70;99.90;;;;;;4992149;28;20492;-46
2022/07/14 12:23:58;;;;;;;5.82;3.88;;;30.70;99.90;;;;;;4992254;28;20045;-45
2022/07/14 12:26:25;;;;;;;4.85;3.95;;;30.70;99.90;;;;;;4992176;28;20023;-46
2022/07/14 12:28:54;;;;;;;5.80;4.05;;;30.70;99.90;;;;;;4992146;28;20037;-47
2022/07/14 12:31:21;;;;;;;5.93;3.97;;;30.70;99.90;;;;;;4992065;28;20026;-50
2022/07/14 12:33:48;;;;;;;5.15;4.15;;;30.70;99.90;;;;;;4992052;28;20022;-45
2022/07/14 12:36:17;;;;;;;4.28;3.38;;;30.70;99.90;;;;;;4992215;28;20034;-45
2022/07/14 12:38:44;;;;;;;4.40;3.58;;;30.70;99.90;;;;;;4992028;28;20547;-46
2022/07/14 12:41:10;;;;;;;4.47;3.70;;;30.70;99.90;;;;;;4973925;28;20498;-46
2022/07/14 12:43:44;;;;;;;4.95;3.58;;;30.70;99.90;;;;;;4974803;28;20392;-46
2022/07/14 12:46:16;;;;;;;5.13;3.67;;;30.70;99.90;;;;;;4991895;28;20042;-46
2022/07/14 12:48:52;;;;;;;4.60;4.00;;;30.70;99.90;;;;;;4991734;28;20053;-45
2022/07/14 12:51:24;;;;;;;4.82;4.15;;;30.70;99.90;;;;;;4991848;28;20054;-46
2022/07/14 12:53:58;;;;;;;4.07;3.30;;;30.80;99.90;;;;;;4991650;28;20116;-47
2022/07/14 12:56:29;;;;;;;6.40;4.00;;;30.70;99.90;;;;;;4991816;28;20057;-45
2022/07/14 12:58:58;;;;;;;6.93;4.07;;;30.80;99.90;;;;;;4991822;28;20539;-47
2022/07/14 13:01:25;;;;;;;5.82;3.70;;;30.80;99.90;;;;;;4991647;28;20050;-47
2022/07/14 13:04:00;;;;;;;4.95;3.72;;;30.80;99.90;;;;;;4992153;28;20068;-47
2022/07/14 13:06:40;;;;;;;5.07;3.72;;;30.80;99.90;;;;;;4991778;28;20022;-45
2022/07/14 13:09:16;;;;;;;5.20;3.90;;;30.80;99.90;;;;;;4991625;28;20301;-45